Latest Weather Observations for Jabiru

IDD60801

Issued at 3:31 pm CST Wednesday 5 August 2015 (issued every 30 minutes, with the page automatically refreshed every 10 minutes)

About weather observations | Map of weather stations | Latest weather observations for NT | Other Formats
Station Details ID: 014198 Name: JABIRU AIRPORT Lat: -12.66 Lon: 132.89 Height: 26.5 m
Data from the previous 72 hours. | See also: Recent months at Jabiru
Date/Time
CST
Temp
°C
App
Temp
°C
Dew
Point
Rel
Hum
%
Delta-T
°C
Wind Press
QNH
hPa
Press
MSL
hPa
Rain
since 9 am
mm
Dir
 
Spd
km/h
Gust
km/h
Spd
kts
Gust
kts
05/03:30pm 30.5 25.8 1.0 15 14.4 SE 15 26 8 14 1011.7 1011.5 0.0
05/03:00pm 30.5 25.8 1.0 15 14.4 ESE 15 28 8 15 1012.2 1012.0 0.0
05/02:30pm 30.3 26.0 0.8 15 14.3 ESE 13 26 7 14 1012.5 1012.3 0.0
05/02:00pm 30.2 25.1 0.7 15 14.3 ESE 17 28 9 15 1013.0 1012.8 0.0
05/01:30pm 30.2 24.5 0.7 15 14.3 SE 20 32 11 17 1013.5 1013.3 0.0
05/01:00pm 29.6 24.4 0.2 15 14.1 ESE 17 24 9 13 1014.0 1013.8 0.0
05/12:30pm 28.8 23.7 0.5 16 13.5 SE 17 32 9 17 1014.5 1014.3 0.0
05/12:00pm 27.6 21.9 -0.5 16 13.1 SE 19 26 10 14 1015.1 1014.9 0.0
05/11:30am 27.1 21.9 0.0 17 12.7 SE 17 30 9 16 1015.8 1015.6 0.0
05/11:00am 26.4 20.7 -0.6 17 12.4 SE 19 28 10 15 1016.2 1016.0 0.0
05/10:30am 25.7 20.4 -0.4 18 12.0 SE 17 28 9 15 1016.6 1016.4 0.0
05/10:00am 25.0 18.9 0.5 20 11.4 ESE 22 35 12 19 1016.8 1016.6 0.0
05/09:30am 24.2 18.1 0.5 21 10.9 ESE 22 39 12 21 1016.8 1016.6 0.0
05/09:00am 22.9 18.2 3.4 28 9.4 ESE 17 26 9 14 1016.7 1016.5 0.0
05/08:30am 21.9 17.3 6.6 37 7.8 ESE 20 28 11 15 1016.4 1016.2 0.0
05/08:00am 21.1 18.0 8.7 45 6.5 ESE 15 26 8 14 1016.4 1016.2 0.0
05/07:30am 20.1 18.0 8.1 46 6.2 E 9 15 5 8 1016.3 1016.1 0.0
05/07:00am 19.9 16.9 7.6 45 6.3 ESE 13 19 7 10 1016.1 1015.9 0.0
05/06:30am 20.0 17.4 7.7 45 6.3 ESE 11 24 6 13 1015.8 1015.6 0.0
05/06:00am 19.1 16.8 5.9 42 6.5 ESE 7 11 4 6 1015.6 1015.4 0.0
05/05:30am 20.3 17.3 5.9 39 7.2 ESE 11 22 6 12 1015.3 1015.1 0.0
05/05:00am 19.6 17.4 6.3 42 6.6 SE 7 13 4 7 1015.0 1014.8 0.0
05/04:30am 19.1 17.0 6.6 44 6.3 SE 7 11 4 6 1014.9 1014.7 0.0
05/04:00am 19.1 17.0 6.6 44 6.3 ESE 7 9 4 5 1014.7 1014.5 0.0
05/03:30am 19.8 17.2 6.2 41 6.8 NE 9 11 5 6 1014.9 1014.7 0.0
05/03:00am 20.0 17.5 6.4 41 6.8 E 9 13 5 7 1015.0 1014.8 0.0
05/02:30am 21.4 18.8 6.1 37 7.7 E 9 15 5 8 1015.1 1014.9 0.0
05/02:00am 21.8 18.9 6.5 37 7.8 E 11 17 6 9 1015.2 1015.0 0.0
05/01:30am 21.8 18.9 6.5 37 7.8 E 11 17 6 9 1015.4 1015.2 0.0
05/01:00am 22.6 19.7 6.4 35 8.3 E 11 15 6 8 1015.3 1015.1 0.0
05/12:30am 23.5 20.4 7.2 35 8.5 ESE 13 17 7 9 1015.4 1015.2 0.0
05/12:00am 23.9 20.5 7.5 35 8.6 E 15 22 8 12 1015.4 1015.2 0.0
 
Date/Time
CST
Temp
°C
App
Temp
°C
Dew
Point
Rel
Hum
%
Delta-T
°C
Wind Press
QNH
hPa
Press
MSL
hPa
Rain
since 9 am
mm
Dir
 
Spd
km/h
Gust
km/h
Spd
kts
Gust
kts
04/11:30pm 24.1 21.8 7.3 34 8.8 ESE 9 13 5 7 1015.2 1015.0 0.0
04/11:00pm 24.5 22.0 6.7 32 9.2 ESE 9 13 5 7 1015.1 1014.9 0.0
04/10:30pm 25.0 22.4 6.2 30 9.7 ESE 9 15 5 8 1015.2 1015.0 0.0
04/10:00pm 25.7 22.7 5.8 28 10.2 ESE 11 17 6 9 1015.2 1015.0 0.0
04/09:30pm 26.1 22.9 5.1 26 10.7 ESE 11 20 6 11 1014.9 1014.7 0.0
04/09:00pm 27.1 23.5 4.8 24 11.4 SE 13 22 7 12 1014.5 1014.3 0.0
04/08:30pm 27.4 24.2 5.1 24 11.4 SE 11 17 6 9 1014.1 1013.9 0.0
04/08:00pm 27.9 24.3 4.9 23 11.8 SE 13 19 7 10 1013.7 1013.5 0.0
04/07:30pm 28.5 24.7 4.1 21 12.4 SE 13 22 7 12 1013.2 1013.0 0.0
04/07:00pm 29.0 25.3 4.5 21 12.6 SE 13 22 7 12 1012.9 1012.7 0.0
04/06:30pm 29.6 25.9 4.3 20 13.0 SE 13 22 7 12 1012.5 1012.3 0.0
04/06:00pm 30.6 26.0 3.6 18 13.8 ESE 17 32 9 17 1012.4 1012.2 0.0
04/05:30pm 31.4 26.9 4.2 18 14.1 SE 17 28 9 15 1012.2 1012.0 0.0
04/05:00pm 31.6 27.1 4.4 18 14.2 ESE 17 26 9 14 1012.1 1011.9 0.0
04/04:30pm 31.8 27.1 5.3 19 14.0 ESE 19 32 10 17 1011.9 1011.7 0.0
04/04:00pm 32.2 28.0 5.7 19 14.1 ESE 17 33 9 18 1012.0 1011.8 0.0
04/03:30pm 31.8 27.3 6.1 20 13.8 SE 19 30 10 16 1012.3 1012.1 0.0
04/03:00pm 31.9 27.2 6.2 20 13.8 ESE 20 32 11 17 1012.6 1012.4 0.0
04/02:30pm 31.2 26.6 6.3 21 13.3 ESE 20 32 11 17 1013.1 1012.9 0.0
04/02:00pm 31.8 27.0 7.5 22 13.3 E 22 35 12 19 1013.7 1013.5 0.0
04/01:30pm 31.6 26.9 7.9 23 13.1 ESE 22 33 12 18 1014.2 1014.0 0.0
04/01:00pm 30.9 25.9 8.0 24 12.6 SE 24 37 13 20 1014.9 1014.7 0.0
04/12:30pm 31.1 26.5 8.2 24 12.6 ESE 22 41 12 22 1015.5 1015.3 0.0
04/12:11pm 30.6 25.3 8.3 25 12.3 ESE 26 48 14 26 1015.9 1015.7 0.0
04/12:00pm 31.1 26.7 8.8 25 12.4 ESE 22 41 12 22 1016.0 1015.8 0.0
04/11:30am 30.1 25.9 9.6 28 11.5 SE 22 35 12 19 1016.5 1016.3 0.0
04/11:00am 29.4 25.1 9.5 29 11.1 ESE 22 35 12 19 1017.0 1016.8 0.0
04/10:30am 28.4 24.3 10.1 32 10.3 ESE 22 39 12 21 1017.3 1017.1 0.0
04/10:00am 27.5 24.6 11.1 36 9.3 ESE 17 24 9 13 1017.5 1017.3 0.0
04/09:30am 26.6 24.2 12.6 42 8.1 ESE 17 30 9 16 1017.5 1017.3 0.0
04/09:00am 25.0 23.5 14.2 51 6.4 ESE 15 28 8 15 1017.4 1017.2 0.0
04/08:30am 24.1 22.8 14.8 56 5.5 ESE 15 24 8 13 1017.1 1016.9 0.0
04/08:00am 23.0 22.4 15.6 63 4.4 E 13 22 7 12 1017.1 1016.9 0.0
04/07:30am 21.7 21.4 15.5 68 3.7 E 11 17 6 9 1016.7 1016.5 0.0
04/07:00am 20.3 20.1 14.7 70 3.3 E 9 13 5 7 1016.4 1016.2 0.0
04/06:30am 20.6 20.3 14.5 68 3.6 E 9 11 5 6 1016.2 1016.0 0.0
04/06:00am 20.3 19.9 14.0 67 3.6 ESE 9 11 5 6 1015.9 1015.7 0.0
04/05:30am 20.2 19.7 13.9 67 3.6 ESE 9 11 5 6 1015.4 1015.2 0.0
04/05:00am 20.2 20.0 13.6 66 3.8 NE 7 9 4 5 1015.2 1015.0 0.0
04/04:30am 20.2 19.6 13.4 65 3.9 E 9 11 5 6 1015.1 1014.9 0.0
04/04:00am 21.1 20.1 13.3 61 4.5 E 11 13 6 7 1015.0 1014.8 0.0
04/03:30am 21.1 20.3 12.8 59 4.7 E 9 11 5 6 1014.9 1014.7 0.0
04/03:00am 22.1 21.2 12.6 55 5.4 E 9 11 5 6 1015.1 1014.9 0.0
04/02:30am 22.2 21.2 12.2 53 5.6 ENE 9 11 5 6 1015.2 1015.0 0.0
04/02:00am 22.4 21.3 11.8 51 6.0 E 9 11 5 6 1015.3 1015.1 0.0
04/01:30am 23.8 22.6 11.5 46 6.9 ESE 9 13 5 7 1015.5 1015.3 0.0
04/01:00am 23.7 22.9 11.7 47 6.8 ESE 7 9 4 5 1015.7 1015.5 0.0
04/12:30am 24.1 23.3 11.8 46 7.0 ESE 7 11 4 6 1015.7 1015.5 0.0
04/12:00am 24.8 23.8 11.0 42 7.7 ESE 7 11 4 6 1015.9 1015.7 0.0
 
Date/Time
CST
Temp
°C
App
Temp
°C
Dew
Point
Rel
Hum
%
Delta-T
°C
Wind Press
QNH
hPa
Press
MSL
hPa
Rain
since 9 am
mm
Dir
 
Spd
km/h
Gust
km/h
Spd
kts
Gust
kts
03/11:30pm 25.4 24.1 11.2 41 8.0 ESE 9 13 5 7 1016.1 1015.9 0.0
03/11:00pm 25.6 24.0 11.4 41 8.1 ESE 11 15 6 8 1016.0 1015.8 0.0
03/10:30pm 25.6 24.5 12.1 43 7.7 SE 9 13 5 7 1015.8 1015.6 0.0
03/10:00pm 25.0 24.8 12.9 47 7.0 ESE 6 9 3 5 1015.6 1015.4 0.0
03/09:30pm 25.5 25.1 12.4 44 7.5 ESE 6 7 3 4 1015.3 1015.1 0.0
03/09:00pm 26.4 25.9 12.1 41 8.2 E 6 6 3 3 1015.0 1014.8 0.0
03/08:30pm 27.3 26.4 11.3 37 9.1 ESE 7 11 4 6 1014.8 1014.6 0.0
03/08:00pm 28.3 26.4 10.5 33 10.1 E 11 15 6 8 1014.4 1014.2 0.0
03/07:30pm 28.8 27.1 10.0 31 10.6 E 9 11 5 6 1014.0 1013.8 0.0
03/07:00pm 29.6 27.0 9.2 28 11.4 E 13 15 7 8 1013.7 1013.5 0.0
03/06:30pm 30.3 27.8 8.1 25 12.2 E 11 20 6 11 1013.4 1013.2 0.0
03/06:00pm 31.5 27.1 6.5 21 13.5 ENE 19 24 10 13 1013.1 1012.9 0.0
03/05:30pm 32.2 27.4 4.9 18 14.4 ENE 19 28 10 15 1012.9 1012.7 0.0
03/05:00pm 32.5 26.9 3.5 16 14.9 E 22 30 12 16 1012.8 1012.6 0.0
03/04:30pm 33.0 27.3 2.9 15 15.4 ENE 22 35 12 19 1012.6 1012.4 0.0
03/04:00pm 33.1 27.8 2.0 14 15.7 E 19 26 10 14 1012.6 1012.4 0.0
03/03:30pm 33.1 26.2 -0.1 12 16.2 E 26 41 14 22 1012.6 1012.4 0.0
03/03:00pm 33.4 27.1 1.3 13 16.0 ENE 24 35 13 19 1012.6 1012.4 0.0
03/02:30pm 33.8 27.0 0.5 12 16.5 ENE 26 41 14 22 1013.0 1012.8 0.0
03/02:00pm 33.6 28.9 3.4 15 15.6 E 17 24 9 13 1013.5 1013.3 0.0
03/01:30pm 33.0 27.4 5.5 18 14.7 E 24 41 13 22 1014.1 1013.9 0.0
03/01:00pm 32.5 27.6 5.1 18 14.5 ESE 20 39 11 21 1014.7 1014.5 0.0
03/12:30pm 32.4 28.2 7.3 21 13.7 ESE 19 30 10 16 1015.4 1015.2 0.0
03/12:00pm 31.5 27.5 9.1 25 12.6 E 20 33 11 18 1016.0 1015.8 0.0
03/11:30am 30.0 27.1 11.0 31 10.9 SE 17 26 9 14 1016.5 1016.3 0.0
03/11:00am 30.4 28.3 12.3 33 10.6 E 15 22 8 12 1016.8 1016.6 0.0
03/10:30am 28.6 27.2 12.1 36 9.6 E 11 20 6 11 1016.9 1016.7 0.0
03/10:00am 27.9 26.5 14.5 44 8.1 ENE 15 20 8 11 1017.1 1016.9 0.0
03/09:30am 27.1 25.3 14.5 46 7.6 ENE 17 24 9 13 1017.2 1017.0 0.0
03/09:00am 25.8 25.3 15.8 54 6.1 E 13 19 7 10 1017.0 1016.8 0.0
03/08:30am 24.7 24.9 16.7 61 4.9 E 11 17 6 9 1016.6 1016.4 0.0
03/08:00am 23.4 23.6 16.7 66 4.1 E 11 15 6 8 1016.4 1016.2 0.0
03/07:30am 22.0 22.6 16.7 72 3.2 E 9 11 5 6 1016.0 1015.8 0.0
03/07:00am 20.9 21.3 16.3 75 2.8 E 9 13 5 7 1015.5 1015.3 0.0
03/06:30am 20.8 21.2 16.2 75 2.8 E 9 11 5 6 1015.2 1015.0 0.0
03/06:00am 21.2 21.7 16.6 75 2.8 ENE 9 11 5 6 1015.2 1015.0 0.0
03/05:30am 21.6 22.1 16.6 73 3.0 ENE 9 11 5 6 1015.3 1015.1 0.0
03/05:00am 22.1 22.6 16.6 71 3.3 ENE 9 11 5 6 1015.5 1015.3 0.0
03/04:30am 22.5 22.7 16.8 70 3.5 E 11 13 6 7 1015.3 1015.1 0.0
03/04:00am 23.3 23.8 16.6 66 4.1 E 9 13 5 7 1015.2 1015.0 0.0
03/03:30am 24.1 24.0 16.9 64 4.4 E 13 19 7 10 1015.4 1015.2 0.0
03/03:00am 23.8 24.2 17.3 67 4.0 E 11 15 6 8 1015.7 1015.5 0.0
03/02:30am 24.4 24.6 17.6 66 4.2 E 13 17 7 9 1015.9 1015.7 0.0
03/02:00am 24.8 25.3 17.5 64 4.6 E 11 19 6 10 1016.1 1015.9 0.0
03/01:30am 25.1 25.0 17.8 64 4.6 E 15 22 8 12 1016.2 1016.0 0.0
03/01:00am 24.8 25.1 17.8 65 4.4 E 13 19 7 10 1016.1 1015.9 0.0
03/12:30am 24.9 25.8 18.3 66 4.2 E 11 26 6 14 1016.0 1015.8 0.0
03/12:00am 24.7 26.0 18.4 68 4.0 E 9 13 5 7 1015.9 1015.7 0.0
 
Date/Time
CST
Temp
°C
App
Temp
°C
Dew
Point
Rel
Hum
%
Delta-T
°C
Wind Press
QNH
hPa
Press
MSL
hPa
Rain
since 9 am
mm
Dir
 
Spd
km/h
Gust
km/h
Spd
kts
Gust
kts
02/11:30pm 25.4 26.8 18.6 66 4.3 ESE 9 13 5 7 1015.8 1015.6 0.0
02/11:00pm 25.6 26.5 18.5 65 4.5 E 11 15 6 8 1015.8 1015.6 0.0
02/10:30pm 25.8 27.5 18.5 64 4.6 E 7 9 4 5 1015.7 1015.5 0.0
02/10:00pm 26.3 28.1 18.7 63 4.9 NE 7 9 4 5 1015.5 1015.3 0.0
02/09:30pm 26.6 28.0 18.7 62 5.0 NE 9 13 5 7 1015.3 1015.1 0.0
02/09:00pm 27.0 27.1 18.3 59 5.5 NE 15 20 8 11 1015.2 1015.0 0.0
02/08:30pm 27.4 27.4 18.1 57 5.9 NNE 15 24 8 13 1014.7 1014.5 0.0
02/08:00pm 27.8 27.3 17.9 54 6.3 NNE 17 24 9 13 1014.2 1014.0 0.0
02/07:30pm 28.2 28.0 12.9 38 9.0 ENE 6 9 3 5 1013.8 1013.6 0.0
02/07:00pm 29.1 28.7 12.9 37 9.6 E 7 11 4 6 1013.4 1013.2 0.0
02/06:30pm 30.5 29.9 12.4 33 10.7 E 7 11 4 6 1013.2 1013.0 0.0
02/06:00pm 31.3 29.5 12.2 31 11.3 ENE 13 15 7 8 1013.0 1012.8 0.0
02/05:30pm 31.7 29.5 12.0 30 11.6 ENE 15 20 8 11 1012.8 1012.6 0.0
02/05:00pm 31.9 30.1 12.2 30 11.6 ENE 13 17 7 9 1012.7 1012.5 0.0
02/04:30pm 31.7 28.9 11.5 29 11.8 ENE 17 28 9 15 1012.7 1012.5 0.0
02/04:00pm 32.7 30.8 11.8 28 12.3 ENE 13 22 7 12 1012.8 1012.6 0.0

Other Formats:

Comma delimited format used in spreadsheet applications
http://www.bom.gov.au/fwo/IDD60801/IDD60801.94137.axf

JavaScript Object Notation format (JSON) in row-major order
http://www.bom.gov.au/fwo/IDD60801/IDD60801.94137.json